Time;durP1;ratioP1;P1;durP2;ratioP2;P2;SDS_P1;SDS_P2;PMS_P1;PMS_P2;Temp;Humidity;BMP_temperature;BMP_pressure;BME280_temperature;BME280_humidity;BME280_pressure;Samples;Min_cycle;Max_cycle;Signal;HPM_P1;HPM_P2
2021/05/04 00:02:19;;;;;;;5.53;2.37;;;;;;;10.69;69.17;97778.16;5061605;28;20275;-66
2021/05/04 00:04:46;;;;;;;2.93;2.10;;;;;;;10.70;68.60;97787.78;5062629;28;20292;-69
2021/05/04 00:07:13;;;;;;;3.30;2.00;;;;;;;10.64;69.58;97772.63;5062449;28;20212;-68
2021/05/04 00:09:40;;;;;;;5.47;2.03;;;;;;;10.56;72.76;97766.69;5056617;28;20200;-66
2021/05/04 00:12:07;;;;;;;4.87;2.13;;;;;;;10.44;73.42;97768.31;5067932;28;20266;-66
2021/05/04 00:14:35;;;;;;;3.30;2.10;;;;;;;10.49;72.75;97766.66;5063521;28;20205;-66
2021/05/04 00:17:03;;;;;;;3.70;2.20;;;;;;;10.35;74.03;97761.56;5063693;28;20213;-66
2021/05/04 00:19:31;;;;;;;6.63;2.43;;;;;;;10.10;78.37;97753.31;5062794;28;20211;-65
2021/05/04 00:21:58;;;;;;;3.87;2.40;;;;;;;10.38;75.95;97753.13;5062330;28;20221;-65
2021/05/04 00:24:24;;;;;;;3.03;2.27;;;;;;;10.38;75.43;97749.66;5063060;28;20563;-66
2021/05/04 00:26:51;;;;;;;3.90;2.17;;;;;;;10.19;78.62;97744.09;5061193;28;20203;-66
2021/05/04 00:29:18;;;;;;;3.93;2.53;;;;;;;10.25;76.98;97743.28;5061791;28;20212;-66
2021/05/04 00:31:46;;;;;;;5.03;2.30;;;;;;;10.10;80.35;97733.84;5062398;28;20691;-66
2021/05/04 00:34:12;;;;;;;5.73;2.57;;;;;;;10.19;79.75;97738.78;5063637;28;20302;-66
2021/05/04 00:36:39;;;;;;;4.63;2.67;;;;;;;10.14;80.02;97719.09;5061412;28;20252;-66
2021/05/04 00:39:06;;;;;;;5.17;2.20;;;;;;;10.02;82.57;97716.19;5063988;28;20561;-67
2021/05/04 00:41:33;;;;;;;2.93;2.30;;;;;;;10.01;81.65;97719.88;5057882;28;20237;-66
2021/05/04 00:44:00;;;;;;;3.03;2.33;;;;;;;10.07;80.81;97720.13;5060168;28;20211;-67
2021/05/04 00:46:27;;;;;;;6.87;2.50;;;;;;;9.94;80.96;97720.91;5064016;28;20197;-66
2021/05/04 00:48:54;;;;;;;4.23;2.60;;;;;;;9.99;82.42;97711.25;5064658;28;20211;-66
2021/05/04 00:51:21;;;;;;;3.37;2.23;;;;;;;9.72;85.28;97712.25;5063511;28;20704;-66
2021/05/04 00:53:48;;;;;;;2.47;1.87;;;;;;;9.76;86.06;97710.00;5061954;28;20224;-66
2021/05/04 00:56:17;;;;;;;3.17;2.17;;;;;;;9.91;84.48;97705.31;5070311;28;20568;-69
2021/05/04 00:58:44;;;;;;;3.80;2.20;;;;;;;9.74;86.52;97707.53;5059466;28;20199;-66
2021/05/04 01:01:11;;;;;;;4.27;2.07;;;;;;;9.74;87.09;97699.53;5068943;28;20228;-66
2021/05/04 01:03:39;;;;;;;3.63;2.20;;;;;;;9.73;87.62;97703.22;5061920;28;20199;-67
2021/05/04 01:06:06;;;;;;;4.77;2.23;;;;;;;9.71;87.75;97702.63;5064420;28;20206;-64
2021/05/04 01:08:33;;;;;;;5.73;2.10;;;;;;;9.69;88.91;97693.19;5071593;28;20202;-67
2021/05/04 01:11:00;;;;;;;3.80;2.40;;;;;;;9.61;89.58;97690.69;5070983;28;20702;-66
2021/05/04 01:13:27;;;;;;;2.70;1.87;;;;;;;9.57;90.74;97692.97;5067853;28;20235;-67
2021/05/04 01:15:54;;;;;;;3.60;2.27;;;;;;;9.57;91.17;97682.31;5065209;28;20202;-67
2021/05/04 01:18:21;;;;;;;3.43;2.47;;;;;;;9.47;93.28;97684.53;5065717;28;20237;-67
2021/05/04 01:20:50;;;;;;;6.70;2.40;;;;;;;9.42;93.30;97681.66;5064500;28;20236;-66
2021/05/04 01:23:17;;;;;;;4.20;2.40;;;;;;;9.56;93.35;97674.50;5064229;28;20214;-67
2021/05/04 01:25:44;;;;;;;4.23;2.40;;;;;;;9.59;92.92;97672.25;5063321;28;20620;-67
2021/05/04 01:28:11;;;;;;;3.50;2.17;;;;;;;9.62;92.32;97663.88;5063780;28;20207;-67
2021/05/04 01:30:38;;;;;;;3.90;2.20;;;;;;;9.64;91.73;97661.81;5063134;28;20279;-67
2021/05/04 01:33:05;;;;;;;5.40;2.30;;;;;;;9.69;92.28;97661.22;5062642;28;20245;-67
2021/05/04 01:35:32;;;;;;;3.60;2.13;;;;;;;9.65;94.17;97651.97;5063556;28;20580;-67
2021/05/04 01:38:01;;;;;;;3.60;2.10;;;;;;;9.74;90.15;97656.91;5068104;28;20212;-67
2021/05/04 01:40:28;;;;;;;3.17;2.43;;;;;;;9.80;88.20;97656.06;5067580;28;20217;-65
2021/05/04 01:42:55;;;;;;;3.23;2.60;;;;;;;9.93;87.57;97645.44;5057918;28;20210;-67
2021/05/04 01:45:22;;;;;;;2.97;2.27;;;;;;;9.92;87.22;97643.78;5058441;28;20897;-67
2021/05/04 01:47:49;;;;;;;3.50;2.37;;;;;;;9.82;88.51;97639.88;5060545;28;20223;-66
2021/05/04 01:50:16;;;;;;;3.00;2.10;;;;;;;9.89;87.85;97640.72;5064090;28;20689;-66
2021/05/04 01:52:42;;;;;;;2.50;2.00;;;;;;;9.85;86.01;97639.50;5059109;28;20240;-67
2021/05/04 01:55:11;;;;;;;3.40;2.10;;;;;;;9.96;85.45;97634.38;5058466;28;20207;-67
2021/05/04 01:57:38;;;;;;;3.10;1.93;;;;;;;9.92;84.03;97625.13;5067152;28;20230;-67
2021/05/04 02:00:07;;;;;;;3.60;2.50;;;;;;;10.01;83.16;97626.56;5060731;28;20264;-67
2021/05/04 02:02:34;;;;;;;4.77;2.47;;;;;;;10.04;82.78;97628.03;5068973;28;20200;-67
2021/05/04 02:05:01;;;;;;;4.77;2.07;;;;;;;9.88;85.49;97609.75;5065979;28;20207;-67
2021/05/04 02:07:28;;;;;;;4.23;2.00;;;;;;;10.01;83.36;97610.59;5070175;28;20608;-67
2021/05/04 02:09:54;;;;;;;3.63;2.10;;;;;;;10.05;84.57;97611.81;5068016;28;20285;-67
2021/05/04 02:12:22;;;;;;;6.07;2.60;;;;;;;10.13;81.82;97612.66;5062768;28;20585;-67
2021/05/04 02:14:49;;;;;;;2.33;2.10;;;;;;;10.12;80.27;97608.34;5059201;28;20214;-66
2021/05/04 02:17:16;;;;;;;4.20;2.27;;;;;;;10.24;78.78;97599.50;5062716;28;20199;-67
2021/05/04 02:19:42;;;;;;;3.03;2.00;;;;;;;10.31;77.18;97601.09;5069488;28;20202;-67
2021/05/04 02:22:09;;;;;;;3.70;2.07;;;;;;;10.38;75.55;97591.25;5058178;28;20218;-66
2021/05/04 02:24:36;;;;;;;3.60;2.27;;;;;;;10.43;74.63;97599.44;5061652;28;20207;-67
2021/05/04 02:27:03;;;;;;;2.07;1.63;;;;;;;10.73;71.96;97601.59;5068491;28;20212;-67
2021/05/04 02:29:31;;;;;;;2.40;1.90;;;;;;;10.78;69.69;97591.91;5065003;28;20207;-67
2021/05/04 02:31:57;;;;;;;3.23;1.97;;;;;;;11.03;67.25;97608.84;5063848;28;20234;-67
2021/05/04 02:34:24;;;;;;;4.60;2.27;;;;;;;11.11;67.19;97601.41;5058263;28;20217;-66
2021/05/04 02:36:51;;;;;;;2.67;2.00;;;;;;;11.23;67.04;97597.03;5057858;28;20202;-67
2021/05/04 02:39:18;;;;;;;2.67;1.83;;;;;;;11.37;64.95;97590.53;5062517;28;20204;-67
2021/05/04 02:41:45;;;;;;;2.33;1.97;;;;;;;10.81;69.89;97576.28;5059387;28;20330;-67
2021/05/04 02:44:11;;;;;;;2.53;1.80;;;;;;;11.31;65.80;97564.69;5061657;28;20211;-67
2021/05/04 02:46:39;;;;;;;2.13;1.80;;;;;;;11.18;68.03;97559.47;5062425;28;20201;-67
2021/05/04 02:49:06;;;;;;;3.23;2.00;;;;;;;11.24;67.80;97561.28;5062581;28;20663;-67
2021/05/04 02:51:33;;;;;;;2.73;2.00;;;;;;;11.11;67.80;97565.88;5055735;28;20644;-67
2021/05/04 02:54:00;;;;;;;3.40;2.10;;;;;;;11.13;66.14;97561.97;5056440;28;20218;-67
2021/05/04 02:56:26;;;;;;;2.43;1.80;;;;;;;11.22;66.51;97551.84;5067072;28;20237;-67
2021/05/04 02:58:53;;;;;;;2.50;1.80;;;;;;;11.19;67.12;97555.75;5063269;28;20207;-65
2021/05/04 03:01:20;;;;;;;4.00;1.80;;;;;;;11.17;67.47;97543.66;5065674;28;20233;-66
2021/05/04 03:03:48;;;;;;;1.97;1.60;;;;;;;11.30;66.41;97540.88;5060211;28;20196;-68
2021/05/04 03:06:15;;;;;;;3.10;1.57;;;;;;;10.90;67.81;97534.97;5060523;28;20206;-67
2021/05/04 03:08:41;;;;;;;2.43;1.83;;;;;;;11.31;66.50;97539.84;5065908;28;20207;-67
2021/05/04 03:11:08;;;;;;;4.50;2.07;;;;;;;11.12;66.42;97530.13;5067996;28;20223;-66
2021/05/04 03:13:35;;;;;;;4.70;1.80;;;;;;;11.30;66.22;97530.19;5066095;28;20235;-67
2021/05/04 03:16:02;;;;;;;2.87;2.00;;;;;;;11.44;65.60;97531.72;5060009;28;20204;-67
2021/05/04 03:18:28;;;;;;;4.30;1.80;;;;;;;11.32;66.13;97528.13;5062804;28;20246;-66
2021/05/04 03:20:56;;;;;;;2.37;1.93;;;;;;;11.39;64.31;97527.03;5068580;28;20228;-67
2021/05/04 03:23:24;;;;;;;4.70;2.10;;;;;;;11.11;67.58;97518.63;5057281;28;20554;-67
2021/05/04 03:25:51;;;;;;;1.70;1.60;;;;;;;11.41;65.27;97500.91;5060683;28;20197;-67
2021/05/04 03:28:18;;;;;;;2.90;1.87;;;;;;;11.21;65.51;97500.25;5059814;28;20205;-67
2021/05/04 03:30:45;;;;;;;2.63;1.90;;;;;;;11.18;65.96;97500.72;5065531;28;20221;-66
2021/05/04 03:33:12;;;;;;;2.63;1.50;;;;;;;11.33;66.21;97492.38;5057711;28;20297;-67
2021/05/04 03:35:39;;;;;;;3.10;1.80;;;;;;;11.08;66.07;97499.53;5062150;28;20201;-67
2021/05/04 03:38:06;;;;;;;4.27;2.00;;;;;;;11.58;63.74;97499.34;5061722;28;20209;-67
2021/05/04 03:40:33;;;;;;;3.20;2.00;;;;;;;11.45;63.32;97499.47;5066042;28;20576;-67
2021/05/04 03:43:01;;;;;;;3.70;1.80;;;;;;;11.48;63.50;97492.84;5069577;28;20664;-67
2021/05/04 03:45:28;;;;;;;4.37;2.20;;;;;;;11.76;62.30;97493.22;5061953;28;20210;-67
2021/05/04 03:47:55;;;;;;;2.30;1.63;;;;;;;11.69;61.61;97497.84;5060262;28;20201;-67
2021/05/04 03:50:24;;;;;;;2.00;1.80;;;;;;;11.58;63.86;97487.84;5053713;28;20727;-67
2021/05/04 03:52:52;;;;;;;2.17;1.80;;;;;;;11.73;61.76;97492.84;5059409;28;20221;-67
2021/05/04 03:55:20;;;;;;;1.63;1.33;;;;;;;11.29;65.29;97485.81;5061857;28;20270;-67
2021/05/04 03:57:47;;;;;;;2.77;1.70;;;;;;;11.53;63.27;97482.34;5061302;28;20324;-67
2021/05/04 04:00:16;;;;;;;2.23;1.50;;;;;;;11.25;65.88;97477.44;5068722;28;20216;-67
2021/05/04 04:02:43;;;;;;;1.97;1.53;;;;;;;11.46;63.03;97468.22;5061426;28;20582;-67
2021/05/04 04:05:11;;;;;;;1.93;1.50;;;;;;;11.63;61.25;97472.00;5060429;28;20200;-66
2021/05/04 04:07:38;;;;;;;1.87;1.40;;;;;;;11.71;61.12;97469.00;5069346;28;20211;-66
2021/05/04 04:10:05;;;;;;;2.50;1.57;;;;;;;11.56;60.95;97465.88;5067331;28;20208;-67
2021/05/04 04:12:33;;;;;;;2.80;1.80;;;;;;;11.46;63.66;97458.34;5053822;28;20228;-67
2021/05/04 04:15:00;;;;;;;2.20;1.40;;;;;;;11.76;61.05;97455.00;5059836;28;20216;-66
2021/05/04 04:17:27;;;;;;;1.77;1.50;;;;;;;11.65;64.18;97447.72;5063899;28;20247;-67
2021/05/04 04:19:54;;;;;;;4.40;1.80;;;;;;;11.78;60.07;97448.41;5059362;28;20731;-67
2021/05/04 04:22:20;;;;;;;1.83;1.40;;;;;;;11.75;61.08;97440.81;5062771;28;20225;-67
2021/05/04 04:24:47;;;;;;;1.57;1.30;;;;;;;11.77;60.44;97450.25;5059615;28;20212;-67
2021/05/04 04:27:14;;;;;;;3.17;1.70;;;;;;;11.51;65.14;97429.09;5059896;28;20201;-68
2021/05/04 04:29:42;;;;;;;3.87;1.57;;;;;;;11.55;61.51;97432.13;5063899;28;20215;-67
2021/05/04 04:32:08;;;;;;;5.07;1.83;;;;;;;11.82;62.20;97430.88;5069431;28;20228;-66
2021/05/04 04:34:35;;;;;;;2.40;1.30;;;;;;;11.54;60.51;97428.69;5068771;28;20201;-67
2021/05/04 04:37:02;;;;;;;2.23;1.50;;;;;;;11.76;61.16;97426.41;5068199;28;20197;-67
2021/05/04 04:39:29;;;;;;;3.10;1.50;;;;;;;11.73;60.05;97420.69;5063434;28;20201;-66
2021/05/04 04:41:55;;;;;;;2.47;1.50;;;;;;;11.68;63.02;97418.69;5062661;28;20818;-67
2021/05/04 04:44:22;;;;;;;2.67;1.53;;;;;;;11.68;62.10;97412.50;5063234;28;20214;-67
2021/05/04 04:46:50;;;;;;;1.87;1.40;;;;;;;11.78;63.75;97405.63;5072686;28;20735;-67
2021/05/04 04:49:18;;;;;;;1.67;1.43;;;;;;;11.54;63.70;97411.81;5070121;28;20262;-67
2021/05/04 04:51:46;;;;;;;4.67;1.60;;;;;;;11.95;61.49;97408.53;5062051;28;20708;-67
2021/05/04 04:54:13;;;;;;;3.80;1.60;;;;;;;11.44;65.13;97403.47;5065086;28;20225;-68
2021/05/04 04:56:41;;;;;;;2.80;1.50;;;;;;;11.58;64.58;97405.00;5068061;28;20203;-68
2021/05/04 04:59:08;;;;;;;4.67;1.73;;;;;;;12.05;61.09;97406.94;5062036;28;20208;-67
2021/05/04 05:01:35;;;;;;;1.73;1.20;;;;;;;11.98;60.56;97406.22;5069604;28;20221;-68
2021/05/04 05:04:04;;;;;;;3.73;1.50;;;;;;;11.56;63.59;97405.22;5062856;28;20193;-68
2021/05/04 05:06:31;;;;;;;2.40;1.60;;;;;;;11.47;65.80;97401.19;5062311;28;20205;-70
2021/05/04 05:08:58;;;;;;;2.80;1.60;;;;;;;12.24;62.76;97397.84;5066942;28;20292;-72
2021/05/04 05:11:25;;;;;;;7.80;1.90;;;;;;;12.07;61.66;97403.00;5065749;28;20232;-68
2021/05/04 05:13:51;;;;;;;2.93;1.43;;;;;;;11.95;61.25;97397.84;5064597;28;20237;-73
2021/05/04 05:16:20;;;;;;;3.57;1.73;;;;;;;11.77;64.54;97392.47;5057349;28;20210;-68
2021/05/04 05:18:47;;;;;;;1.90;1.50;;;;;;;12.46;60.81;97398.97;5070381;28;20205;-68
2021/05/04 05:21:16;;;;;;;3.93;1.30;;;;;;;12.40;61.99;97389.19;5060982;28;20572;-67
2021/05/04 05:23:44;;;;;;;2.43;1.60;;;;;;;12.03;63.98;97379.63;5066287;28;20213;-72
2021/05/04 05:26:11;;;;;;;3.03;1.33;;;;;;;11.93;63.53;97381.19;5060229;28;20246;-66
2021/05/04 05:28:38;;;;;;;2.13;1.30;;;;;;;12.45;62.79;97375.94;5052527;28;20237;-69
2021/05/04 05:31:05;;;;;;;3.70;1.80;;;;;;;12.68;61.55;97377.88;5061983;28;20340;-68
2021/05/04 05:33:32;;;;;;;4.10;1.67;;;;;;;12.38;61.71;97369.06;5057695;28;20320;-69
2021/05/04 05:35:59;;;;;;;6.77;1.77;;;;;;;12.99;58.56;97377.63;5068011;28;20201;-70
2021/05/04 05:38:27;;;;;;;2.77;1.40;;;;;;;12.89;58.78;97375.50;5068153;28;20209;-69
2021/05/04 05:40:55;;;;;;;1.77;1.63;;;;;;;13.27;57.78;97375.09;5061089;28;20264;-76
2021/05/04 05:43:22;;;;;;;2.97;1.60;;;;;;;13.36;55.57;97370.97;5068147;28;20584;-67
2021/05/04 05:45:49;;;;;;;3.23;1.80;;;;;;;13.43;55.02;97371.69;5063834;28;20238;-67
2021/05/04 05:48:16;;;;;;;1.83;1.43;;;;;;;13.65;52.16;97367.34;5067006;28;20208;-65
2021/05/04 05:50:43;;;;;;;2.93;1.57;;;;;;;13.89;51.26;97372.47;5068248;28;20317;-66
2021/05/04 05:53:09;;;;;;;4.13;1.77;;;;;;;14.08;50.42;97370.41;5067271;28;20226;-71
2021/05/04 05:55:37;;;;;;;2.60;1.60;;;;;;;14.01;50.18;97367.03;5065412;28;20206;-68
2021/05/04 05:58:04;;;;;;;2.40;1.10;;;;;;;14.39;48.62;97368.09;5061304;28;20611;-66
2021/05/04 06:00:31;;;;;;;1.80;1.47;;;;;;;14.13;48.75;97371.31;5064098;28;20240;-69
2021/05/04 06:03:02;;;;;;;3.07;1.80;;;;;;;14.57;47.93;97372.44;5065928;28;20648;-68
2021/05/04 06:05:29;;;;;;;3.60;1.73;;;;;;;14.62;48.57;97367.16;5068321;28;20204;-66
2021/05/04 06:07:56;;;;;;;2.20;1.53;;;;;;;14.70;47.41;97372.16;5059765;28;20204;-68
2021/05/04 06:10:23;;;;;;;7.17;1.60;;;;;;;15.10;45.82;97370.16;5067089;28;20204;-67
2021/05/04 06:12:57;;;;;;;3.23;1.53;;;;;;;15.03;46.31;97373.00;5068818;28;20307;-68
2021/05/04 06:15:25;;;;;;;6.00;1.37;;;;;;;15.36;44.13;97372.19;5061794;28;20572;-70
2021/05/04 06:17:51;;;;;;;9.03;1.83;;;;;;;15.10;45.45;97365.56;5060036;28;20210;-67
2021/05/04 06:20:18;;;;;;;2.60;1.60;;;;;;;15.23;45.16;97367.13;5060319;28;20234;-71
2021/05/04 06:22:45;;;;;;;4.67;1.70;;;;;;;15.31;44.58;97358.66;5067940;28;20248;-68
2021/05/04 06:25:12;;;;;;;5.87;1.63;;;;;;;15.37;44.32;97360.38;5061011;28;20715;-65
2021/05/04 06:27:39;;;;;;;2.13;1.57;;;;;;;15.22;44.35;97360.13;5070131;28;20204;-67
2021/05/04 06:30:09;;;;;;;2.20;1.23;;;;;;;15.57;42.83;97360.69;5062252;28;20258;-66
2021/05/04 06:32:36;;;;;;;1.87;1.47;;;;;;;15.71;42.49;97354.69;5057913;28;20291;-67
2021/05/04 06:35:03;;;;;;;2.03;1.40;;;;;;;15.61;42.89;97361.81;5062746;28;20220;-67
2021/05/04 06:37:30;;;;;;;3.33;1.67;;;;;;;15.62;42.49;97366.94;5058924;28;20207;-67
2021/05/04 06:39:57;;;;;;;2.43;1.60;;;;;;;16.16;40.90;97362.53;5067132;28;20267;-67
2021/05/04 06:42:24;;;;;;;2.83;1.40;;;;;;;16.64;40.52;97362.53;5063724;28;20656;-67
2021/05/04 06:44:51;;;;;;;4.27;1.43;;;;;;;16.09;41.28;97368.09;5059571;28;20554;-78
2021/05/04 06:47:18;;;;;;;2.57;1.27;;;;;;;15.90;41.89;97356.00;5054859;28;20201;-68
2021/05/04 06:49:45;;;;;;;2.37;1.30;;;;;;;16.25;41.14;97358.31;5064513;28;20202;-70
2021/05/04 06:52:12;;;;;;;1.87;1.30;;;;;;;15.77;42.62;97347.50;5069965;28;20222;-68
2021/05/04 06:54:40;;;;;;;2.90;1.73;;;;;;;16.08;41.41;97344.13;5058007;28;20211;-68
2021/05/04 06:57:07;;;;;;;1.40;1.17;;;;;;;16.46;40.47;97346.75;5068284;28;20203;-68
2021/05/04 06:59:34;;;;;;;2.00;1.50;;;;;;;16.32;40.47;97343.59;5063613;28;20209;-68
2021/05/04 07:02:00;;;;;;;2.73;1.40;;;;;;;16.55;40.44;97342.50;5070982;28;20605;-67
2021/05/04 07:04:28;;;;;;;5.37;1.50;;;;;;;16.35;40.88;97331.50;5063734;28;20205;-68
2021/05/04 07:06:55;;;;;;;4.57;1.20;;;;;;;16.98;39.11;97334.28;5060382;28;20665;-68
2021/05/04 07:09:22;;;;;;;2.77;1.40;;;;;;;17.32;38.56;97331.03;5055748;28;20206;-68
2021/05/04 07:11:48;;;;;;;7.87;1.33;;;;;;;16.76;39.77;97328.19;5058466;28;20699;-68
2021/05/04 07:14:15;;;;;;;2.70;1.90;;;;;;;17.05;38.57;97326.78;5054811;28;20683;-68
2021/05/04 07:16:42;;;;;;;2.80;1.37;;;;;;;16.92;39.39;97319.94;5055991;28;20294;-68
2021/05/04 07:19:09;;;;;;;3.10;1.57;;;;;;;16.52;40.20;97313.41;5060109;28;20578;-68
2021/05/04 07:21:37;;;;;;;3.57;1.10;;;;;;;16.81;39.43;97326.31;5059832;28;20223;-67
2021/05/04 07:24:05;;;;;;;2.93;1.20;;;;;;;17.11;38.46;97329.28;5058944;28;20627;-67
2021/05/04 07:26:32;;;;;;;1.70;1.17;;;;;;;17.52;37.04;97333.09;5068603;28;20344;-67
2021/05/04 07:28:59;;;;;;;1.47;1.30;;;;;;;17.92;36.21;97328.69;5062334;28;20278;-70
2021/05/04 07:31:26;;;;;;;3.57;1.50;;;;;;;17.97;36.50;97322.50;5058394;28;20629;-70
2021/05/04 07:33:53;;;;;;;5.30;1.70;;;;;;;18.15;35.52;97332.84;5058946;28;20228;-67
2021/05/04 07:36:19;;;;;;;3.77;1.40;;;;;;;18.12;35.78;97322.56;5058891;28;20275;-70
2021/05/04 07:38:47;;;;;;;7.50;1.43;;;;;;;18.19;35.34;97323.16;5058329;28;20206;-68
2021/05/04 07:41:14;;;;;;;1.70;1.10;;;;;;;18.61;34.33;97330.03;5067656;28;20229;-68
2021/05/04 07:43:41;;;;;;;2.63;1.17;;;;;;;18.68;34.30;97311.66;5060753;28;20197;-68
2021/05/04 07:46:07;;;;;;;6.13;1.43;;;;;;;19.19;34.46;97312.47;5060791;28;20206;-68
2021/05/04 07:48:34;;;;;;;3.93;1.17;;;;;;;19.42;34.04;97320.88;5051202;28;20202;-70
2021/05/04 07:51:04;;;;;;;3.57;1.30;;;;;;;19.20;34.06;97316.81;5055187;28;20275;-70
2021/05/04 07:53:31;;;;;;;1.27;1.00;;;;;;;19.62;32.67;97307.28;5056028;28;20214;-72
2021/05/04 07:55:59;;;;;;;3.83;1.30;;;;;;;19.13;33.03;97300.84;5052281;28;20196;-71
2021/05/04 07:58:26;;;;;;;7.50;1.40;;;;;;;19.90;32.05;97306.66;5056364;28;20210;-70
2021/05/04 08:00:53;;;;;;;1.10;1.00;;;;;;;19.75;32.19;97322.16;5054229;28;20269;-72
2021/05/04 08:03:20;;;;;;;7.70;1.70;;;;;;;19.28;32.37;97303.56;5057994;28;20196;-69
2021/05/04 08:05:47;;;;;;;2.53;1.37;;;;;;;19.43;32.13;97317.06;5058229;28;20197;-69
2021/05/04 08:08:14;;;;;;;3.03;0.90;;;;;;;18.92;32.78;97310.06;5065204;28;20209;-68
2021/05/04 08:10:40;;;;;;;2.27;1.33;;;;;;;19.53;32.36;97302.69;5059582;28;20223;-71
2021/05/04 08:13:09;;;;;;;5.30;1.20;;;;;;;18.73;33.07;97316.25;5060060;28;20324;-67
2021/05/04 08:15:36;;;;;;;5.97;1.30;;;;;;;18.49;32.52;97312.44;5066010;28;20209;-68
2021/05/04 08:18:06;;;;;;;5.43;2.03;;;;;;;19.13;31.97;97303.56;5059456;28;20243;-70
2021/05/04 08:20:34;;;;;;;3.10;1.20;;;;;;;19.18;32.19;97314.38;5067495;28;20816;-68
2021/05/04 08:23:01;;;;;;;7.20;1.20;;;;;;;19.21;32.10;97304.91;5063341;28;20569;-67
2021/05/04 08:25:28;;;;;;;1.33;0.87;;;;;;;19.21;32.48;97310.31;5058325;28;20658;-66
2021/05/04 08:27:55;;;;;;;2.63;1.13;;;;;;;19.10;32.52;97314.09;5059826;28;20203;-67
2021/05/04 08:30:23;;;;;;;4.90;1.47;;;;;;;19.92;31.16;97315.28;5058891;28;20211;-66
2021/05/04 08:32:50;;;;;;;3.87;1.20;;;;;;;20.23;30.86;97316.00;5059077;28;20228;-68
2021/05/04 08:35:17;;;;;;;2.30;1.07;;;;;;;20.11;30.37;97310.13;5051540;28;20793;-69
2021/05/04 08:37:44;;;;;;;2.37;1.23;;;;;;;20.06;31.41;97320.94;5067832;28;20200;-67
2021/05/04 08:40:12;;;;;;;2.23;1.17;;;;;;;20.39;31.19;97310.25;5068611;28;20207;-68
2021/05/04 08:42:38;;;;;;;2.27;1.20;;;;;;;20.20;30.98;97306.53;5061187;28;20573;-68
2021/05/04 08:45:06;;;;;;;7.40;1.37;;;;;;;20.13;30.95;97305.22;5054637;28;20584;-68
2021/05/04 08:47:34;;;;;;;5.33;1.50;;;;;;;20.13;30.55;97308.75;5055406;28;20211;-68
2021/05/04 08:50:02;;;;;;;9.60;1.57;;;;;;;19.91;31.18;97291.22;5056805;28;20264;-67
2021/05/04 08:52:29;;;;;;;4.07;1.40;;;;;;;20.32;30.91;97295.38;5053433;28;20231;-68
2021/05/04 08:54:56;;;;;;;7.20;2.07;;;;;;;20.11;30.56;97296.56;5050077;28;20202;-68
2021/05/04 08:57:23;;;;;;;21.97;2.00;;;;;;;20.47;30.58;97292.59;5065824;28;20208;-67
2021/05/04 08:59:50;;;;;;;23.17;2.07;;;;;;;20.06;31.17;97320.94;5059791;28;20237;-69
2021/05/04 09:02:21;;;;;;;8.23;1.63;;;;;;;19.91;31.15;97300.13;5063805;28;20225;-67
2021/05/04 09:04:52;;;;;;;2.40;1.20;;;;;;;20.34;30.75;97293.19;5055014;28;20306;-67
2021/05/04 09:07:23;;;;;;;1.33;0.90;;;;;;;20.37;30.58;97308.91;5054934;28;20732;-68
2021/05/04 09:10:09;;;;;;;2.27;1.30;;;;;;;20.20;31.20;97281.34;5057465;28;20343;-65
2021/05/04 09:12:44;;;;;;;2.20;1.17;;;;;;;20.15;31.61;97294.91;5058119;28;20231;-69
2021/05/04 09:15:42;;;;;;;5.27;1.60;;;;;;;19.81;31.95;97302.09;5063937;28;20722;-68
2021/05/04 09:18:34;;;;;;;9.43;1.77;;;;;;;20.40;31.13;97297.47;5063507;28;20266;-68
2021/05/04 09:21:03;;;;;;;2.67;1.23;;;;;;;21.16;30.02;97299.41;5058881;28;20235;-69
2021/05/04 09:23:30;;;;;;;1.80;1.20;;;;;;;20.82;29.83;97295.06;5069861;28;20207;-68
2021/05/04 09:25:57;;;;;;;2.90;1.33;;;;;;;20.81;29.84;97310.50;5067782;28;20294;-67
2021/05/04 09:28:24;;;;;;;5.37;1.43;;;;;;;20.63;30.41;97291.38;5061585;28;20217;-68
2021/05/04 09:30:56;;;;;;;3.63;1.23;;;;;;;20.94;29.62;97303.66;5063847;28;20227;-68
2021/05/04 09:33:24;;;;;;;1.30;1.00;;;;;;;21.45;29.26;97283.91;5064812;28;20224;-67
2021/05/04 09:35:50;;;;;;;3.30;1.47;;;;;;;20.32;30.42;97276.41;5062167;28;20295;-67
2021/05/04 09:38:19;;;;;;;3.13;1.27;;;;;;;20.40;30.40;97275.78;5051192;28;20719;-68
2021/05/04 09:40:47;;;;;;;2.37;1.10;;;;;;;21.59;29.29;97267.75;5052327;28;20230;-68
2021/05/04 09:43:15;;;;;;;2.27;1.00;;;;;;;21.14;29.26;97288.03;5070848;28;20204;-66
2021/05/04 09:45:43;;;;;;;4.57;1.20;;;;;;;21.28;28.83;97288.16;5061335;28;20210;-65
2021/05/04 09:48:16;;;;;;;7.27;1.87;;;;;;;20.69;28.70;97288.34;5068356;28;20266;-67
2021/05/04 09:50:52;;;;;;;4.33;1.20;;;;;;;21.34;28.46;97298.66;5067017;28;20233;-67
2021/05/04 09:53:28;;;;;;;5.90;1.30;;;;;;;21.47;28.64;97286.31;5066288;28;20304;-65
2021/05/04 09:55:57;;;;;;;1.17;1.03;;;;;;;21.92;28.36;97283.13;5065266;28;20580;-68
2021/05/04 09:58:34;;;;;;;5.63;1.20;;;;;;;21.99;27.72;97300.69;5058893;28;20214;-70
2021/05/04 10:01:02;;;;;;;7.43;1.63;;;;;;;21.71;28.71;97282.56;5060910;28;20778;-66
2021/05/04 10:03:30;;;;;;;3.27;1.07;;;;;;;21.91;27.87;97292.38;5063430;28;20201;-67
2021/05/04 10:05:59;;;;;;;5.17;1.40;;;;;;;21.71;27.37;97287.19;5064045;28;20212;-67
2021/05/04 10:08:28;;;;;;;2.97;1.40;;;;;;;21.61;27.87;97284.56;5055160;28;20600;-67
2021/05/04 10:10:58;;;;;;;3.80;1.10;;;;;;;21.37;28.60;97300.00;5063441;28;20225;-69
2021/05/04 10:13:26;;;;;;;4.33;1.20;;;;;;;20.86;28.64;97286.06;5064291;28;20221;-69
2021/05/04 10:15:53;;;;;;;8.23;1.47;;;;;;;20.96;28.69;97291.44;5057244;28;20209;-68
2021/05/04 10:18:20;;;;;;;1.93;1.50;;;;;;;20.60;28.44;97298.19;5061352;28;20206;-69
2021/05/04 10:20:47;;;;;;;4.83;1.10;;;;;;;20.90;28.33;97321.59;5065453;28;20704;-69
2021/05/04 10:23:14;;;;;;;6.30;1.30;;;;;;;20.69;28.49;97291.06;5060173;28;20204;-70
2021/05/04 10:25:42;;;;;;;4.63;1.30;;;;;;;21.06;28.30;97294.06;5059534;28;20218;-69
2021/05/04 10:28:10;;;;;;;3.93;1.40;;;;;;;20.87;28.08;97293.09;5066805;28;20315;-71
2021/05/04 10:30:37;;;;;;;2.80;1.20;;;;;;;20.89;27.92;97300.94;5060924;28;20962;-66
2021/05/04 10:33:09;;;;;;;2.27;1.10;;;;;;;21.21;27.44;97287.66;5056078;28;20231;-71
2021/05/04 10:35:42;;;;;;;3.50;1.30;;;;;;;21.35;27.96;97280.50;5064646;28;20236;-69
2021/05/04 10:38:11;;;;;;;4.83;1.50;;;;;;;21.10;27.76;97286.16;5060471;28;20205;-72
2021/05/04 10:40:40;;;;;;;2.70;1.20;;;;;;;20.80;28.38;97294.50;5072457;28;20239;-80
2021/05/04 10:43:42;;;;;;;3.57;1.43;;;17.20;1.00;;;21.16;28.47;97285.81;5059153;28;20219;-80
2021/05/04 10:46:38;;;;;;;1.53;1.20;;;17.50;1.00;;;21.10;28.44;97288.84;5048177;28;20213;-82
2021/05/04 10:49:05;;;;;;;3.90;1.20;;;17.60;1.00;;;21.62;27.75;97278.00;5046075;28;20207;-69
2021/05/04 10:51:45;;;;;;;7.00;1.57;;;17.70;1.00;;;21.35;28.27;97286.72;5047825;28;20226;-71
2021/05/04 10:54:13;;;;;;;2.47;1.30;;;17.50;1.00;;;21.52;28.11;97264.56;5051162;28;20244;-70
2021/05/04 10:56:43;;;;;;;3.33;1.10;;;17.60;1.00;;;21.23;28.43;97263.78;5048504;28;20213;-70
2021/05/04 10:59:13;;;;;;;1.93;1.03;;;17.80;1.00;;;21.65;28.46;97291.84;5046486;28;20638;-67
2021/05/04 11:01:41;;;;;;;2.17;1.20;;;18.00;1.00;;;21.64;27.65;97273.91;5045140;28;20221;-71
2021/05/04 11:04:07;;;;;;;4.97;1.17;;;17.80;1.00;;;21.63;27.44;97276.94;5047687;28;20271;-70
2021/05/04 11:06:58;;;;;;;4.13;1.20;;;17.80;1.00;;;21.90;27.18;97275.28;5040401;28;20208;-69
2021/05/04 11:09:24;;;;;;;3.97;1.27;;;18.10;1.00;;;21.91;27.44;97270.66;5047892;28;20287;-70
2021/05/04 11:11:52;;;;;;;2.33;1.23;;;18.10;1.00;;;21.06;27.88;97263.38;5045793;28;20230;-69
2021/05/04 11:14:32;;;;;;;6.40;1.10;;;17.70;1.00;;;21.17;27.81;97279.28;5045584;28;20582;-70
2021/05/04 11:17:08;;;;;;;2.40;1.30;;;17.80;1.00;;;21.87;26.93;97264.19;5050509;28;20198;-70
2021/05/04 11:19:40;;;;;;;3.23;1.37;;;18.00;1.00;;;21.46;27.60;97269.25;5044090;28;20245;-69
2021/05/04 11:22:10;;;;;;;2.50;1.10;;;18.00;1.00;;;22.70;26.24;97241.53;5038620;28;20226;-68
2021/05/04 11:24:39;;;;;;;2.80;1.20;;;;;;;22.07;26.85;97275.59;5046589;28;20612;-67
2021/05/04 11:27:22;;;;;;;9.50;1.27;;;18.70;1.00;;;22.05;26.20;97253.34;5047854;28;20217;-67
2021/05/04 11:29:51;;;;;;;3.30;1.20;;;18.50;1.00;;;21.65;26.27;97258.44;5039644;28;20209;-70
2021/05/04 11:32:20;;;;;;;5.87;1.47;;;18.00;1.00;;;21.28;27.14;97272.66;5045756;28;20236;-69
2021/05/04 11:34:53;;;;;;;5.47;1.50;;;17.90;1.00;;;21.34;27.45;97262.59;5048474;28;20694;-69